createdAt,value
2019-04-21T00:01:34.697Z,14.20
2019-04-21T00:06:48.400Z,16.37
2019-04-21T00:11:55.689Z,16.93
2019-04-21T00:16:44.116Z,18.00
2019-04-21T00:21:47.848Z,19.75
2019-04-21T00:27:05.615Z,20.10
2019-04-21T00:32:08.730Z,16.42
2019-04-21T00:37:05.873Z,16.35
2019-04-21T00:42:13.991Z,15.63
2019-04-21T00:47:27.918Z,23.25
2019-04-21T00:57:42.623Z,18.25
2019-04-21T01:02:44.446Z,17.05
2019-04-21T01:07:41.629Z,18.73
2019-04-21T01:12:53.590Z,18.75
2019-04-21T01:17:48.002Z,18.32
2019-04-21T01:22:30.645Z,19.55
2019-04-21T01:28:03.875Z,19.40
2019-04-21T01:32:59.504Z,19.42
2019-04-21T01:38:06.878Z,21.42
2019-04-21T01:43:07.411Z,22.82
2019-04-21T01:48:06.223Z,22.22
2019-04-21T01:53:31.080Z,19.70
2019-04-21T01:58:28.885Z,18.65
2019-04-21T02:03:52.905Z,21.12
2019-04-21T02:08:45.879Z,23.38
2019-04-21T02:13:57.248Z,23.15
2019-04-21T02:18:49.782Z,22.20
2019-04-21T02:23:58.733Z,19.42
2019-04-21T02:34:16.981Z,22.55
2019-04-21T02:39:20.172Z,22.30
2019-04-21T02:54:48.346Z,27.15
2019-04-21T03:05:01.754Z,31.30
2019-04-21T03:09:46.204Z,52.25
2019-04-21T03:25:23.521Z,55.33
2019-04-21T03:30:26.316Z,41.70
2019-04-21T03:40:15.218Z,32.67
2019-04-21T03:45:23.382Z,34.60
2019-04-21T03:50:22.696Z,29.35
2019-04-21T04:06:05.391Z,27.17
2019-04-21T04:11:08.302Z,29.87
2019-04-21T04:31:25.809Z,33.42
2019-04-21T04:36:23.937Z,29.35
2019-04-21T04:41:32.346Z,32.95
2019-04-21T04:56:58.654Z,29.37
2019-04-21T05:12:17.531Z,29.00
2019-04-21T05:17:15.729Z,29.35
2019-04-21T05:22:20.237Z,29.37
2019-04-21T05:27:08.625Z,34.35
2019-04-21T05:32:17.213Z,34.92
2019-04-21T05:37:32.641Z,33.02
2019-04-21T05:42:29.296Z,31.15
2019-04-21T05:47:57.884Z,32.63
2019-04-21T05:52:46.013Z,34.98
2019-04-21T05:58:01.301Z,32.80
2019-04-21T06:03:05.382Z,32.03
2019-04-21T06:08:14.611Z,33.28
2019-04-21T06:13:31.935Z,33.58
2019-04-21T06:18:27.374Z,32.83
2019-04-21T06:23:25.465Z,32.30
2019-04-21T06:28:38.138Z,31.70
2019-04-21T06:33:36.282Z,34.90
2019-04-21T06:39:01.776Z,33.92
2019-04-21T06:44:13.027Z,32.75
2019-04-21T06:49:15.692Z,36.53
2019-04-21T06:54:23.848Z,32.00
2019-04-21T06:59:29.999Z,31.50
2019-04-21T07:04:36.502Z,32.10
2019-04-21T07:09:36.329Z,31.75
2019-04-21T07:14:49.720Z,32.78
2019-04-21T07:19:48.054Z,33.88
2019-04-21T07:24:48.215Z,32.42
2019-04-21T07:29:53.400Z,30.17
2019-04-21T07:34:57.693Z,32.95
2019-04-21T07:40:02.624Z,32.17
2019-04-21T07:44:59.352Z,30.85
2019-04-21T07:50:14.583Z,34.95
2019-04-21T08:05:53.503Z,32.63
2019-04-21T08:10:52.589Z,37.35
2019-04-21T08:15:58.087Z,34.18
2019-04-21T08:21:02.703Z,30.27
2019-04-21T08:26:06.525Z,29.65
2019-04-21T08:31:09.954Z,30.75
2019-04-21T08:36:17.709Z,31.15
2019-04-21T08:41:12.251Z,34.03
2019-04-21T08:46:20.402Z,30.70
2019-04-21T08:51:27.514Z,30.43
2019-04-21T08:56:43.202Z,29.30
2019-04-21T09:01:55.784Z,29.90
2019-04-21T09:07:05.106Z,35.95
2019-04-21T09:11:59.680Z,31.65
2019-04-21T09:17:00.365Z,32.05
2019-04-21T09:22:07.136Z,32.15
2019-04-21T09:27:10.046Z,33.55
2019-04-21T09:31:59.454Z,32.17
2019-04-21T09:37:15.247Z,33.33
2019-04-21T09:42:05.076Z,33.00
2019-04-21T09:47:08.808Z,37.38
2019-04-21T09:52:16.100Z,31.25
2019-04-21T09:57:23.961Z,31.50
2019-04-21T10:02:25.318Z,35.45
2019-04-21T10:07:28.219Z,33.92
2019-04-21T10:12:25.652Z,33.90
2019-04-21T10:17:39.382Z,35.10
2019-04-21T10:22:42.927Z,37.42
2019-04-21T10:27:45.267Z,35.80
2019-04-21T10:32:48.198Z,34.03
2019-04-21T10:38:05.309Z,34.88
2019-04-21T10:42:54.152Z,33.73
2019-04-21T10:47:56.857Z,37.58
2019-04-21T10:53:14.295Z,38.20
2019-04-21T10:58:18.471Z,34.88
2019-04-21T11:03:26.846Z,36.33
2019-04-21T11:08:34.171Z,34.13
2019-04-21T11:13:34.775Z,35.63
2019-04-21T11:18:39.785Z,36.33
2019-04-21T11:23:41.717Z,35.88
2019-04-21T11:28:43.415Z,35.70
2019-04-21T11:33:45.276Z,34.38
2019-04-21T11:39:11.019Z,36.10
2019-04-21T11:43:59.180Z,38.10
2019-04-21T11:49:02.364Z,35.23
2019-04-21T11:54:04.603Z,39.08
2019-04-21T11:59:07.971Z,36.45
2019-04-21T12:04:09.803Z,34.90
2019-04-21T12:09:29.566Z,31.75
2019-04-21T12:14:32.109Z,32.88
2019-04-21T12:19:34.715Z,35.83
2019-04-21T12:24:38.059Z,32.17
2019-04-21T12:29:41.837Z,29.00
2019-04-21T12:34:43.799Z,28.90
2019-04-21T12:39:46.585Z,29.05
2019-04-21T12:44:49.504Z,32.00
2019-04-21T12:49:52.042Z,28.57
2019-04-21T12:54:53.651Z,31.10
2019-04-21T12:59:55.396Z,28.45
2019-04-21T13:04:57.808Z,27.15
2019-04-21T13:10:00.131Z,25.82
2019-04-21T13:15:04.098Z,28.95
2019-04-21T13:20:07.675Z,30.00
2019-04-21T13:25:09.845Z,27.98
2019-04-21T13:30:14.893Z,25.02
2019-04-21T13:35:17.055Z,31.00
2019-04-21T13:40:48.651Z,30.23
2019-04-21T13:45:34.303Z,29.95
2019-04-21T13:50:37.297Z,27.60
2019-04-21T13:55:40.648Z,28.02
2019-04-21T14:00:42.272Z,25.72
2019-04-21T14:05:44.507Z,22.15
2019-04-21T14:10:47.304Z,25.55
2019-04-21T14:15:51.652Z,23.85
2019-04-21T14:20:53.372Z,29.55
2019-04-21T14:25:55.665Z,30.20
2019-04-21T14:30:58.663Z,25.37
2019-04-21T14:36:01.099Z,24.98
2019-04-21T14:41:04.050Z,24.18
2019-04-21T14:46:08.938Z,22.90
2019-04-21T14:51:13.255Z,29.50
2019-04-21T14:56:15.400Z,22.87
2019-04-21T15:01:17.821Z,24.35
2019-04-21T15:06:19.318Z,25.30
2019-04-21T15:11:40.126Z,21.10
2019-04-21T15:16:42.821Z,22.80
2019-04-21T15:21:44.681Z,24.67
2019-04-21T15:26:46.477Z,24.67
2019-04-21T15:31:48.383Z,25.23
2019-04-21T15:36:50.400Z,24.10
2019-04-21T15:41:52.497Z,27.15
2019-04-21T15:46:55.592Z,25.62
2019-04-21T15:51:58.116Z,26.45
2019-04-21T15:57:04.919Z,27.40
2019-04-21T16:02:26.416Z,32.67
2019-04-21T16:07:29.777Z,27.52
2019-04-21T16:12:31.923Z,26.35
2019-04-21T16:17:33.562Z,25.23
2019-04-21T16:22:36.738Z,24.85
2019-04-21T16:27:39.345Z,25.12
2019-04-21T16:32:42.032Z,24.63
2019-04-21T16:37:44.084Z,23.15
2019-04-21T16:42:45.876Z,26.80
2019-04-21T16:47:51.725Z,20.05
2019-04-21T16:52:56.300Z,22.58
2019-04-21T16:58:13.086Z,25.37
2019-04-21T17:03:10.503Z,17.55
2019-04-21T17:08:11.989Z,19.73
2019-04-21T17:13:13.956Z,17.57
2019-04-21T17:18:32.865Z,17.12
2019-04-21T17:23:19.791Z,15.75
2019-04-21T17:28:21.641Z,19.45
2019-04-21T17:33:28.006Z,19.12
2019-04-21T17:38:27.962Z,13.38
2019-04-21T17:43:31.860Z,17.70
2019-04-21T17:48:34.675Z,14.18
2019-04-21T17:54:00.421Z,14.95
2019-04-21T17:59:35.860Z,12.40
2019-04-21T18:04:24.317Z,18.17
2019-04-21T18:09:28.924Z,14.45
2019-04-21T18:14:11.458Z,15.35
2019-04-21T18:19:13.084Z,14.00
2019-04-21T18:24:22.247Z,14.35
2019-04-21T18:29:21.614Z,15.83
2019-04-21T18:34:34.233Z,14.78
2019-04-21T18:39:56.092Z,15.80
2019-04-21T18:50:29.429Z,19.17
2019-04-21T18:55:39.138Z,15.43
2019-04-21T19:00:38.009Z,18.62
2019-04-21T19:05:38.876Z,18.10
2019-04-21T19:11:01.829Z,17.77
2019-04-21T19:16:22.554Z,15.50
2019-04-21T19:21:08.828Z,18.95
2019-04-21T19:26:25.889Z,18.60
2019-04-21T19:31:17.131Z,18.70
2019-04-21T19:35:59.749Z,17.90
2019-04-21T19:41:16.677Z,17.57
2019-04-21T19:46:22.461Z,17.45
2019-04-21T19:51:22.015Z,18.85
2019-04-21T19:56:14.142Z,18.77
2019-04-21T20:01:17.366Z,18.02
2019-04-21T20:06:36.151Z,21.45
2019-04-21T20:11:37.149Z,18.92
2019-04-21T20:16:48.108Z,17.75
2019-04-21T20:21:30.950Z,23.57
2019-04-21T20:26:37.888Z,26.77
2019-04-21T20:31:53.081Z,21.50
2019-04-21T20:37:02.160Z,22.17
2019-04-21T20:41:56.018Z,23.20
2019-04-21T20:47:00.915Z,24.50
2019-04-21T20:52:18.710Z,20.40
2019-04-21T20:57:11.472Z,25.17
2019-04-21T21:02:19.099Z,21.95
2019-04-21T21:07:35.661Z,19.77
2019-04-21T21:17:42.044Z,22.42
2019-04-21T21:22:33.505Z,28.23
2019-04-21T21:27:35.168Z,23.02
2019-04-21T21:32:38.579Z,27.52
2019-04-21T21:37:49.046Z,18.45
2019-04-21T21:42:35.354Z,21.73
2019-04-21T21:47:59.668Z,19.40
2019-04-21T21:52:51.247Z,19.85
2019-04-21T21:57:49.907Z,18.37
2019-04-21T22:02:51.339Z,19.07
2019-04-21T22:07:49.641Z,19.40
2019-04-21T22:13:01.859Z,23.15
2019-04-21T22:18:18.463Z,18.55
2019-04-21T22:23:06.425Z,20.05
2019-04-21T22:28:02.219Z,21.75
2019-04-21T22:33:08.537Z,21.45
2019-04-21T22:38:20.755Z,20.57
2019-04-21T22:43:21.639Z,19.42
2019-04-21T22:48:19.578Z,19.48
2019-04-21T22:53:21.247Z,18.50
2019-04-21T22:58:29.327Z,19.20
2019-04-21T23:03:28.885Z,19.77
2019-04-21T23:08:37.049Z,17.77
2019-04-21T23:13:34.749Z,19.92
2019-04-21T23:18:53.000Z,19.37
2019-04-21T23:24:01.758Z,21.93
2019-04-21T23:29:01.991Z,22.15
2019-04-21T23:33:48.433Z,23.75
2019-04-21T23:38:53.227Z,26.95
2019-04-21T23:44:01.872Z,26.15
2019-04-21T23:49:16.052Z,25.82
2019-04-21T23:54:02.756Z,28.05
2019-04-21T23:59:10.270Z,24.92
